Time;durP1;ratioP1;P1;durP2;ratioP2;P2;SDS_P1;SDS_P2;PMS_P1;PMS_P2;Temp;Humidity;BMP_temperature;BMP_pressure;BME280_temperature;BME280_humidity;BME280_pressure;Samples;Min_cycle;Max_cycle;Signal;HPM_P1;HPM_P2
2021/06/15 00:02:17;;;;;;;5.43;3.40;;;17.00;64.50;;;15.91;61.21;96281.25;5031488;28;20109;-70
2021/06/15 00:04:44;;;;;;;6.88;3.67;;;17.00;64.80;;;15.90;60.86;96278.81;5034122;28;20052;-70
2021/06/15 00:07:09;;;;;;;5.75;3.50;;;16.90;64.80;;;15.86;60.62;96283.75;5008793;28;20032;-70
2021/06/15 00:09:35;;;;;;;5.10;3.40;;;16.90;64.50;;;15.84;61.26;96280.50;5018813;28;20512;-70
2021/06/15 00:12:03;;;;;;;5.28;3.38;;;16.90;65.00;;;15.78;61.81;96286.63;5026170;28;20047;-70
2021/06/15 00:14:29;;;;;;;5.95;3.40;;;16.80;65.10;;;15.75;61.68;96287.06;5036312;28;20087;-70
2021/06/15 00:16:54;;;;;;;4.82;3.45;;;16.70;65.30;;;15.73;62.12;96278.53;5017342;28;20041;-70
2021/06/15 00:19:20;;;;;;;6.18;3.60;;;16.80;65.50;;;15.72;61.10;96279.56;5041246;28;20037;-70
2021/06/15 00:21:46;;;;;;;5.90;3.80;;;16.80;65.50;;;15.71;62.00;96275.28;5050923;28;20257;-70
2021/06/15 00:24:12;;;;;;;6.55;3.42;;;16.70;65.90;;;15.66;61.03;96277.78;5033350;28;20044;-70
2021/06/15 00:26:38;;;;;;;5.63;3.38;;;16.60;65.40;;;15.60;61.95;96268.81;5033805;28;20424;-70
2021/06/15 00:29:03;;;;;;;7.78;3.83;;;16.60;65.30;;;15.57;62.26;96276.38;5036165;28;20115;-70
2021/06/15 00:31:29;;;;;;;6.18;3.60;;;16.60;65.50;;;15.53;62.43;96277.84;5025781;28;20057;-70
2021/06/15 00:33:55;;;;;;;7.43;3.80;;;16.60;65.50;;;15.50;62.55;96275.63;5022903;28;20036;-70
2021/06/15 00:36:21;;;;;;;6.60;3.88;;;16.60;65.70;;;15.44;61.81;96279.94;5049268;28;20136;-70
2021/06/15 00:38:47;;;;;;;6.60;4.00;;;16.50;65.40;;;15.34;63.02;96271.63;5024212;28;20033;-70
2021/06/15 00:41:12;;;;;;;6.35;3.78;;;16.40;65.30;;;15.27;61.97;96269.03;5017251;28;20429;-70
2021/06/15 00:43:39;;;;;;;7.22;3.65;;;16.30;65.00;;;15.23;62.92;96269.69;5027058;28;20388;-70
2021/06/15 00:46:05;;;;;;;6.32;3.83;;;16.30;65.10;;;15.17;61.96;96268.72;5047939;28;20041;-70
2021/06/15 00:48:35;;;;;;;5.00;3.50;;;16.20;65.40;;;15.18;62.93;96274.81;5047817;28;20562;-70
2021/06/15 00:51:02;;;;;;;6.55;3.53;;;16.30;65.50;;;15.13;62.18;96270.16;5013327;28;20036;-70
2021/06/15 00:53:29;;;;;;;6.53;3.20;;;16.30;65.20;;;15.11;62.70;96269.53;5018531;28;20522;-70
2021/06/15 00:55:54;;;;;;;8.60;4.00;;;16.10;64.80;;;15.07;61.80;96276.31;5014198;28;20487;-70
2021/06/15 00:58:21;;;;;;;5.00;3.17;;;16.10;64.90;;;15.06;61.68;96281.81;5029849;28;20037;-70
2021/06/15 01:00:48;;;;;;;4.80;3.50;;;16.10;65.60;;;15.05;62.58;96286.31;5029809;28;20051;-70
2021/06/15 01:03:13;;;;;;;5.68;3.60;;;16.10;65.80;;;14.99;62.01;96280.03;5045655;28;20056;-70
2021/06/15 01:05:39;;;;;;;4.00;3.58;;;16.10;65.90;;;14.97;62.70;96278.63;4980405;23;20051;-67
2021/06/15 01:08:40;;;;;;;7.90;3.55;;;16.00;65.60;;;14.89;64.27;96276.19;4928644;28;20045;-68
2021/06/15 01:11:19;;;;;;;6.57;3.72;;;15.90;66.00;;;14.82;63.34;96280.72;4954588;28;20126;-66
2021/06/15 01:13:56;;;;;;;7.03;3.05;;;15.90;66.50;;;14.78;63.99;96274.22;4959994;28;20042;-67
2021/06/15 01:16:44;;;;;;;5.93;3.65;;;15.80;66.90;;;14.76;65.73;96268.31;4968102;28;20039;-67
2021/06/15 01:19:34;;;;;;;5.03;3.60;;;15.90;67.10;;;14.73;65.77;96264.25;4923023;28;20031;-67
2021/06/15 01:22:14;;;;;;;7.25;3.95;;;15.90;67.00;;;14.70;65.47;96256.72;4964591;28;20660;-67
2021/06/15 01:24:56;;;;;;;4.93;3.40;;;15.80;67.20;;;14.62;65.64;96255.13;4943085;28;20525;-67
2021/06/15 01:27:44;;;;;;;6.95;3.70;;;15.70;67.50;;;14.58;65.57;96251.28;4936583;28;20101;-67
2021/06/15 01:30:12;;;;;;;6.25;3.97;;;15.60;67.80;;;14.49;64.58;96249.09;4970444;28;20079;-67
2021/06/15 01:32:39;;;;;;;5.70;3.53;;;15.60;67.50;;;14.44;64.77;96257.63;4924284;29;20501;-66
2021/06/15 01:35:06;;;;;;;5.90;4.00;;;15.50;67.00;;;14.42;63.65;96264.94;4936066;28;20046;-67
2021/06/15 01:37:42;;;;;;;7.50;3.97;;;15.50;67.10;;;14.40;64.95;96259.88;4950734;28;20572;-68
2021/06/15 01:40:19;;;;;;;5.28;3.80;;;15.50;67.10;;;14.40;64.79;96267.00;4966201;28;20031;-67
2021/06/15 01:42:54;;;;;;;7.65;3.92;;;15.50;67.20;;;14.39;64.92;96260.06;4921043;28;20106;-67
2021/06/15 01:45:45;;;;;;;7.15;4.38;;;15.50;66.90;;;14.38;64.87;96264.56;4950343;28;20487;-66
2021/06/15 01:48:42;;;;;;;6.03;3.92;;;15.50;67.20;;;14.35;65.59;96253.56;4920598;28;20039;-67
2021/06/15 01:51:09;;;;;;;5.32;3.95;;;15.50;67.30;;;14.29;63.84;96257.06;4950972;28;20043;-67
2021/06/15 01:53:39;;;;;;;8.27;4.18;;;15.40;67.30;;;14.26;64.04;96249.53;4906667;28;20069;-67
2021/06/15 01:56:05;;;;;;;8.13;4.07;;;15.40;67.40;;;14.26;63.91;96241.59;4954154;28;20043;-67
2021/06/15 01:58:33;;;;;;;5.40;4.25;;;15.40;67.50;;;14.27;64.74;96243.22;4933974;28;20557;-68
2021/06/15 02:00:59;;;;;;;7.50;4.40;;;15.40;67.60;;;14.28;64.84;96252.78;4985537;28;20041;-66
2021/06/15 02:03:25;;;;;;;6.90;4.43;;;15.40;67.70;;;14.26;63.85;96241.59;4983294;28;20027;-67
2021/06/15 02:05:58;;;;;;;7.13;4.40;;;15.40;67.60;;;14.22;65.15;96243.03;4938216;28;20147;-66
2021/06/15 02:08:35;;;;;;;6.60;4.35;;;15.30;67.70;;;14.20;65.12;96234.47;4964195;28;20031;-66
2021/06/15 02:11:01;;;;;;;5.70;4.32;;;15.30;67.90;;;14.18;65.12;96236.53;4986350;28;20034;-66
2021/06/15 02:13:29;;;;;;;6.20;4.53;;;15.20;68.30;;;14.15;65.18;96236.94;4956312;28;20543;-66
2021/06/15 02:15:55;;;;;;;7.97;4.45;;;15.30;68.40;;;14.13;65.37;96244.28;4970009;28;20050;-66
2021/06/15 02:18:22;;;;;;;5.82;4.40;;;15.20;68.40;;;14.09;64.88;96243.88;4941772;28;20117;-66
2021/06/15 02:20:48;;;;;;;10.15;4.88;;;15.10;68.60;;;14.08;65.16;96247.56;4941362;28;20111;-66
2021/06/15 02:23:19;;;;;;;8.40;4.38;;;15.10;68.60;;;14.04;66.56;96247.16;4956984;28;20046;-66
2021/06/15 02:25:45;;;;;;;5.65;4.30;;;15.10;68.40;;;14.01;64.72;96242.25;4969469;28;20031;-66
2021/06/15 02:28:11;;;;;;;8.10;4.70;;;15.10;68.50;;;13.99;65.29;96246.94;4939027;28;20375;-66
2021/06/15 02:30:37;;;;;;;6.60;4.22;;;15.10;68.60;;;13.96;65.84;96242.06;4937680;28;20039;-66
2021/06/15 02:33:10;;;;;;;8.75;4.75;;;15.10;68.70;;;13.92;66.23;96240.84;4940460;28;20502;-66
2021/06/15 02:35:39;;;;;;;7.50;4.60;;;15.00;68.60;;;13.91;65.68;96247.16;4957103;28;20118;-66
2021/06/15 02:38:08;;;;;;;8.68;5.00;;;15.00;69.00;;;13.90;66.00;96250.84;4968911;28;20076;-67
2021/06/15 02:40:33;;;;;;;7.70;4.55;;;15.00;68.90;;;13.85;65.46;96240.06;4972921;28;20038;-66
2021/06/15 02:42:59;;;;;;;7.82;4.32;;;15.00;68.80;;;13.84;66.03;96251.66;4969521;28;20585;-66
2021/06/15 02:45:30;;;;;;;7.75;4.47;;;15.00;68.70;;;13.81;66.55;96252.06;4921271;28;20046;-66
2021/06/15 02:47:59;;;;;;;7.40;4.57;;;15.00;68.90;;;13.78;65.49;96247.97;4971511;28;20045;-66
2021/06/15 02:50:28;;;;;;;7.35;4.75;;;14.90;69.10;;;13.75;66.57;96239.66;4969381;28;20576;-66
2021/06/15 02:53:02;;;;;;;7.95;4.60;;;14.90;69.40;;;13.71;67.52;96239.25;4971911;28;20411;-66
2021/06/15 02:55:31;;;;;;;7.95;4.53;;;14.80;69.40;;;13.68;66.55;96247.59;4972352;28;20049;-66
2021/06/15 02:57:57;;;;;;;7.50;4.47;;;14.80;69.50;;;13.61;66.51;96251.28;4961775;28;20070;-66
2021/06/15 03:00:22;;;;;;;7.93;4.55;;;14.70;69.50;;;13.60;66.41;96249.66;4955746;28;20510;-66
2021/06/15 03:02:48;;;;;;;5.88;3.72;;;14.80;69.90;;;13.60;66.74;96249.66;4971870;28;20387;-66
2021/06/15 03:05:16;;;;;;;6.35;3.90;;;14.80;69.90;;;13.58;66.34;96256.94;4978329;28;20042;-67
2021/06/15 03:07:45;;;;;;;6.03;3.90;;;14.70;69.90;;;13.57;67.15;96260.59;4938042;28;20101;-66
2021/06/15 03:10:11;;;;;;;5.43;3.80;;;14.70;70.00;;;13.56;66.83;96251.03;4987897;28;20030;-66
2021/06/15 03:12:55;;;;;;;10.20;4.18;;;14.70;70.20;;;13.54;68.59;96253.09;4972824;28;20038;-67
2021/06/15 03:15:43;;;;;;;10.98;4.50;;;14.60;70.50;;;13.48;68.07;96260.81;4969830;28;20046;-67
2021/06/15 03:18:28;;;;;;;5.13;3.70;;;14.70;70.60;;;13.43;68.75;96260.63;4967985;28;20115;-66
2021/06/15 03:20:57;;;;;;;6.05;3.80;;;14.60;70.60;;;13.41;67.75;96260.00;4966090;28;20038;-67
2021/06/15 03:23:48;;;;;;;5.68;3.72;;;14.60;70.90;;;13.38;69.23;96259.59;4968783;28;20078;-67
2021/06/15 03:26:20;;;;;;;5.72;3.63;;;14.60;70.90;;;13.35;68.57;96258.19;4972909;28;20041;-67
2021/06/15 03:28:52;;;;;;;6.07;3.75;;;14.60;71.10;;;13.36;68.71;96265.09;4972973;28;20114;-66
2021/06/15 03:31:19;;;;;;;7.45;3.63;;;14.60;70.90;;;13.35;67.71;96263.47;4980399;28;20039;-67
2021/06/15 03:33:47;;;;;;;4.70;3.65;;;14.70;70.90;;;13.36;68.09;96270.38;4932790;28;20084;-67
2021/06/15 03:36:13;;;;;;;5.00;3.70;;;14.60;70.90;;;13.36;67.91;96270.38;4955532;28;20050;-67
2021/06/15 03:38:39;;;;;;;8.18;4.53;;;14.60;70.80;;;13.34;67.41;96272.38;4972351;28;20035;-67
2021/06/15 03:41:05;;;;;;;5.47;3.70;;;14.60;71.10;;;13.34;67.81;96267.09;4957409;28;20498;-67
2021/06/15 03:43:31;;;;;;;9.30;4.00;;;14.60;71.10;;;13.34;67.93;96275.00;4970488;28;20077;-67
2021/06/15 03:46:09;;;;;;;7.18;3.92;;;14.60;71.00;;;13.33;69.47;96276.03;4940823;28;20458;-66
2021/06/15 03:48:39;;;;;;;5.28;4.03;;;14.50;71.20;;;13.30;68.41;96276.44;4930741;28;20524;-67
2021/06/15 03:51:05;;;;;;;6.38;4.28;;;14.50;71.50;;;13.28;67.85;96270.56;4970642;28;20137;-67
2021/06/15 03:53:32;;;;;;;7.32;4.05;;;14.50;71.50;;;13.26;68.01;96280.50;4989936;28;20038;-67
2021/06/15 03:55:59;;;;;;;6.90;3.97;;;14.50;71.10;;;13.25;68.37;96268.31;4972150;28;20477;-67
2021/06/15 03:58:25;;;;;;;5.70;4.30;;;14.60;71.20;;;13.25;68.38;96273.59;4953424;28;20077;-66
2021/06/15 04:00:51;;;;;;;5.85;4.30;;;14.60;71.40;;;13.26;68.33;96269.94;4975453;28;20042;-67
2021/06/15 04:03:17;;;;;;;8.10;4.57;;;14.60;71.70;;;13.26;68.51;96271.75;4955075;28;20073;-72
2021/06/15 04:05:43;;;;;;;7.93;5.13;;;14.60;71.80;;;13.26;68.77;96264.66;4982264;28;20030;-73
2021/06/15 04:08:12;;;;;;;7.18;4.20;;;14.60;71.70;;;13.27;69.11;96261.00;4952667;28;20069;-72
2021/06/15 04:10:38;;;;;;;5.75;4.10;;;14.70;71.80;;;13.31;69.39;96262.22;4943795;28;20054;-69
2021/06/15 04:13:04;;;;;;;6.80;4.30;;;14.70;71.70;;;13.33;68.93;96265.47;4988693;28;20050;-72
2021/06/15 04:15:30;;;;;;;7.82;4.47;;;14.70;71.70;;;13.37;68.97;96264.06;4955965;28;20452;-72
2021/06/15 04:17:57;;;;;;;8.60;4.50;;;14.70;71.80;;;13.42;69.01;96268.75;4959843;28;20030;-70
2021/06/15 04:20:29;;;;;;;6.85;4.70;;;14.80;71.70;;;13.44;70.09;96267.53;4977449;28;20088;-66
2021/06/15 04:22:55;;;;;;;6.63;4.60;;;14.90;71.90;;;13.48;69.52;96279.31;4972969;28;20549;-67
2021/06/15 04:25:26;;;;;;;6.47;4.85;;;14.80;71.80;;;13.50;70.07;96271.19;4958432;28;20038;-67
2021/06/15 04:27:51;;;;;;;8.25;4.63;;;14.80;72.40;;;13.52;69.38;96273.63;4975023;28;20049;-66
2021/06/15 04:30:19;;;;;;;7.70;4.55;;;14.90;72.30;;;13.53;69.66;96278.69;4974933;28;20062;-67
2021/06/15 04:32:56;;;;;;;6.65;4.57;;;14.90;72.10;;;13.55;70.74;96278.50;4974823;28;20459;-67
2021/06/15 04:35:51;;;;;;;8.90;4.57;;;14.90;72.00;;;13.59;70.95;96279.75;4943003;28;20035;-67
2021/06/15 04:38:54;;;;;;;7.53;4.43;;;15.00;71.90;;;13.62;71.71;96272.22;4959875;28;20023;-67
2021/06/15 04:41:27;;;;;;;8.80;4.47;;;15.00;72.10;;;13.66;69.61;96277.91;4975600;28;20124;-67
2021/06/15 04:44:02;;;;;;;5.97;4.32;;;15.10;72.00;;;13.71;70.87;96278.09;4975154;28;20451;-67
2021/06/15 04:46:51;;;;;;;7.95;4.47;;;15.20;71.90;;;13.77;70.93;96274.63;4958000;28;20037;-67
2021/06/15 04:50:08;;;;;;;7.90;4.68;;;15.20;72.10;;;13.85;72.05;96269.16;4970870;28;20051;-66
2021/06/15 04:52:33;;;;;;;9.27;4.95;;;15.30;72.10;;;13.90;69.43;96266.69;4973442;28;20042;-66
2021/06/15 04:55:00;;;;;;;8.77;5.03;;;15.40;72.40;;;13.96;70.17;96271.16;4972967;28;20043;-67
2021/06/15 04:57:32;;;;;;;8.82;5.05;;;15.50;72.20;;;14.02;70.63;96270.31;4959670;28;20114;-70
2021/06/15 05:00:01;;;;;;;7.78;4.80;;;15.50;72.40;;;14.10;69.89;96262.19;4972702;28;20375;-71
2021/06/15 05:02:27;;;;;;;7.60;5.25;;;15.60;72.50;;;14.18;70.60;96269.09;4971091;28;20035;-69
2021/06/15 05:04:52;;;;;;;7.45;5.30;;;15.70;72.40;;;14.26;69.62;96270.72;4933819;28;20093;-70
2021/06/15 05:07:19;;;;;;;8.38;5.38;;;15.70;71.90;;;14.33;69.92;96266.22;4976071;28;20085;-69
2021/06/15 05:09:47;;;;;;;8.38;5.28;;;15.80;71.70;;;14.40;70.66;96269.63;4954359;28;20036;-70
2021/06/15 05:12:12;;;;;;;10.27;5.90;;;15.90;71.80;;;14.48;70.19;96269.44;4961363;28;20418;-71
2021/06/15 05:14:38;;;;;;;10.18;6.68;;;16.00;71.40;;;14.56;69.31;96271.84;4965706;28;20089;-71
2021/06/15 05:17:04;;;;;;;8.90;5.93;;;16.10;70.70;;;14.65;69.22;96278.53;4974045;28;20034;-70
2021/06/15 05:19:30;;;;;;;9.23;6.25;;;16.20;69.70;;;14.75;69.38;96279.94;4969104;28;20037;-69
2021/06/15 05:22:14;;;;;;;9.10;5.63;;;16.30;69.80;;;14.85;68.76;96281.09;4978077;28;20046;-70
2021/06/15 05:24:46;;;;;;;7.68;5.22;;;16.40;68.30;;;14.91;67.77;96285.53;4954458;28;20035;-69
2021/06/15 05:27:13;;;;;;;11.73;5.40;;;16.40;66.30;;;15.00;68.19;96286.13;4986047;28;20031;-70
2021/06/15 05:29:39;;;;;;;9.52;5.03;;;16.50;67.70;;;15.11;67.31;96287.28;4956393;28;20042;-66
2021/06/15 05:32:07;;;;;;;11.20;8.70;;;16.60;66.10;;;15.23;67.20;96288.25;4973370;28;20084;-67
2021/06/15 05:34:36;;;;;;;11.68;6.63;;;16.90;66.60;;;15.36;68.16;96284.69;4977953;28;20043;-67
2021/06/15 05:37:03;;;;;;;9.15;5.80;;;17.00;66.70;;;15.50;68.17;96294.19;4971406;28;20030;-68
2021/06/15 05:39:30;;;;;;;11.77;6.28;;;17.20;66.70;;;15.62;67.51;96297.81;4960583;28;20469;-66
2021/06/15 05:41:55;;;;;;;6.60;5.35;;;17.50;66.40;;;15.76;67.32;96299.31;4985031;28;20479;-69
2021/06/15 05:44:21;;;;;;;9.93;5.47;;;17.70;64.70;;;15.89;65.82;96295.75;4975800;28;20089;-69
2021/06/15 05:46:47;;;;;;;8.35;4.63;;;18.00;61.90;;;16.04;64.62;96298.84;4984341;28;20464;-69
2021/06/15 05:49:13;;;;;;;8.27;4.00;;;18.20;58.10;;;16.16;63.20;96291.81;4973612;28;20038;-69
2021/06/15 05:51:39;;;;;;;8.98;3.92;;;18.40;56.80;;;16.30;62.83;96300.47;4961186;28;20079;-69
2021/06/15 05:54:06;;;;;;;10.13;5.30;;;18.60;55.30;;;16.45;61.84;96294.78;4971197;28;20049;-67
2021/06/15 05:56:32;;;;;;;9.68;4.82;;;18.80;55.50;;;16.62;62.11;96295.03;4988542;28;20045;-66
2021/06/15 05:58:57;;;;;;;5.95;3.50;;;19.00;55.30;;;16.77;61.89;96306.94;4972712;28;20062;-66
2021/06/15 06:01:25;;;;;;;6.47;3.80;;;19.10;54.50;;;16.93;60.55;96297.53;4984814;28;20545;-65
2021/06/15 06:04:06;;;;;;;12.73;8.60;;;19.40;53.60;;;17.11;60.67;96294.03;4949381;28;20057;-65
2021/06/15 06:09:16;;;;;;;10.43;6.55;;;19.60;51.10;;;17.45;59.31;96301.34;4970730;28;19929;-69
2021/06/15 06:11:42;;;;;;;10.52;5.18;;;19.90;50.30;;;17.65;58.32;96298.38;4969407;28;20231;-68
2021/06/15 06:14:11;;;;;;;7.68;5.85;;;20.20;50.50;;;17.87;57.70;96303.16;4938829;28;20031;-65
2021/06/15 06:16:36;;;;;;;34.95;25.33;;;20.40;49.20;;;18.07;57.49;96300.97;4975095;28;20126;-67
2021/06/15 06:19:04;;;;;;;10.90;7.95;;;20.70;50.40;;;18.28;57.71;96299.59;4995540;28;20579;-68
2021/06/15 06:21:33;;;;;;;12.93;6.78;;;20.90;49.80;;;18.47;57.56;96298.44;4967629;28;20517;-66
2021/06/15 06:24:00;;;;;;;8.98;3.95;;;21.10;50.40;;;18.68;57.43;96302.38;4975926;28;20101;-67
2021/06/15 06:26:26;;;;;;;8.80;5.65;;;21.40;51.00;;;18.87;58.13;96301.16;4957712;28;20057;-69
2021/06/15 06:28:52;;;;;;;10.20;6.45;;;21.60;51.00;;;19.10;57.58;96299.47;4938996;28;20039;-66
2021/06/15 06:31:18;;;;;;;7.03;4.35;;;21.90;50.60;;;19.31;57.24;96301.47;4971617;28;20045;-68
2021/06/15 06:33:44;;;;;;;9.73;5.63;;;22.40;49.60;;;19.51;57.07;96290.38;4973112;28;20041;-67
2021/06/15 06:36:10;;;;;;;10.30;6.95;;;22.60;49.20;;;19.70;57.47;96299.81;4988948;28;20034;-67
2021/06/15 06:38:35;;;;;;;11.50;6.65;;;22.70;49.20;;;19.91;56.81;96297.44;4979521;28;20104;-67
2021/06/15 06:41:01;;;;;;;7.15;4.00;;;23.00;48.30;;;20.10;55.90;96299.63;4988659;28;20042;-70
2021/06/15 06:43:27;;;;;;;9.68;6.70;;;23.20;47.00;;;20.33;55.86;96293.28;4980300;28;20470;-69
2021/06/15 06:45:53;;;;;;;10.95;6.07;;;23.50;47.10;;;20.54;56.16;96294.41;4955501;28;20545;-69
2021/06/15 06:48:19;;;;;;;18.70;13.73;;;23.60;46.10;;;20.77;55.37;96294.19;4945915;28;20057;-65
2021/06/15 06:50:45;;;;;;;12.02;4.00;;;23.90;45.70;;;21.00;53.70;96298.47;4942606;28;20105;-68
2021/06/15 06:53:11;;;;;;;5.13;3.88;;;24.10;43.90;;;21.23;53.84;96297.38;4971782;28;20026;-68
2021/06/15 06:55:37;;;;;;;6.03;3.63;;;24.30;45.30;;;21.47;54.47;96299.81;4968916;28;20133;-69
2021/06/15 06:58:02;;;;;;;7.65;3.33;;;24.60;44.40;;;21.71;53.66;96290.41;4979471;28;20191;-68
2021/06/15 07:00:28;;;;;;;4.90;3.28;;;25.00;43.50;;;21.96;52.15;96290.63;4956391;28;20388;-67
2021/06/15 07:02:54;;;;;;;5.85;3.30;;;25.20;42.10;;;22.17;52.70;96290.78;4939163;28;20035;-66
2021/06/15 07:05:20;;;;;;;5.93;3.42;;;25.40;42.20;;;22.35;51.74;96286.88;4984407;28;20116;-69
2021/06/15 07:07:46;;;;;;;5.75;2.95;;;25.60;41.70;;;22.51;50.39;96284.03;4982126;28;20690;-68
2021/06/15 07:10:12;;;;;;;4.55;2.40;;;25.90;40.30;;;22.69;49.92;96282.00;4975743;28;20034;-67
2021/06/15 07:12:38;;;;;;;9.85;3.13;;;26.10;39.20;;;22.84;48.98;96274.03;4964282;28;20109;-65
2021/06/15 07:15:05;;;;;;;4.00;2.75;;;26.50;38.80;;;23.05;49.06;96281.09;5001019;28;20042;-67
2021/06/15 07:17:31;;;;;;;9.45;4.65;;;26.70;38.30;;;23.22;48.95;96286.25;4972635;28;20430;-67
2021/06/15 07:19:56;;;;;;;12.00;6.63;;;26.80;39.50;;;23.37;48.51;96278.25;4972451;28;20085;-68
2021/06/15 07:22:22;;;;;;;7.38;3.67;;;26.90;39.10;;;23.53;48.56;96277.16;4987336;28;20494;-69
2021/06/15 07:24:48;;;;;;;8.57;4.25;;;27.10;39.40;;;23.71;48.43;96277.75;4965142;28;20512;-67
2021/06/15 07:27:14;;;;;;;10.23;3.78;;;27.30;40.30;;;23.89;49.05;96276.44;4991137;28;20509;-68
2021/06/15 07:29:39;;;;;;;6.85;4.20;;;27.60;39.70;;;24.05;48.45;96278.06;4991179;28;20031;-68
2021/06/15 07:32:06;;;;;;;8.57;3.95;;;27.70;39.20;;;24.24;48.93;96278.31;4993198;28;20046;-66
2021/06/15 07:34:31;;;;;;;7.88;4.38;;;28.00;40.60;;;24.40;48.75;96286.09;4973483;28;20034;-66
2021/06/15 07:36:57;;;;;;;6.78;4.47;;;28.10;38.80;;;24.59;47.51;96280.13;4940979;28;20093;-68
2021/06/15 07:39:23;;;;;;;7.72;4.57;;;28.50;37.30;;;24.77;47.29;96278.75;4990645;28;20525;-70
2021/06/15 07:41:49;;;;;;;9.30;4.85;;;28.60;36.20;;;24.93;47.46;96277.59;4991535;28;20026;-69
2021/06/15 07:44:15;;;;;;;9.65;6.57;;;28.90;37.60;;;25.11;46.34;96282.38;4993846;28;20038;-68
2021/06/15 07:46:40;;;;;;;7.90;4.60;;;29.20;36.00;;;25.27;45.82;96283.13;4974733;28;20049;-70
2021/06/15 07:49:06;;;;;;;6.78;3.97;;;29.40;34.50;;;25.46;45.12;96286.78;4978838;28;20042;-67
2021/06/15 07:51:32;;;;;;;6.65;2.88;;;29.60;34.90;;;25.67;44.23;96286.66;4967911;28;20533;-68
2021/06/15 07:53:58;;;;;;;7.00;2.33;;;29.80;32.50;;;25.85;42.88;96289.50;4990079;28;20529;-66
2021/06/15 07:56:24;;;;;;;12.45;2.78;;;30.00;30.60;;;26.05;41.83;96287.75;4964981;28;20069;-69
2021/06/15 07:58:50;;;;;;;7.97;2.15;;;30.20;29.80;;;26.22;41.73;96283.53;4972179;28;20062;-67
2021/06/15 08:01:16;;;;;;;8.93;4.97;;;30.30;30.90;;;26.41;41.40;96277.44;4974631;28;20034;-65
2021/06/15 08:03:42;;;;;;;9.30;5.15;;;30.40;31.30;;;26.60;40.38;96278.31;4945672;28;20734;-67
2021/06/15 08:06:08;;;;;;;6.80;2.47;;;30.60;29.40;;;26.76;39.08;96277.06;5002508;28;20034;-68
2021/06/15 08:08:33;;;;;;;5.28;1.88;;;30.60;26.40;;;26.93;38.51;96267.69;4974828;28;20129;-66
2021/06/15 08:11:00;;;;;;;6.53;2.08;;;30.80;27.30;;;27.11;37.61;96267.75;4973948;28;20042;-69
2021/06/15 08:13:26;;;;;;;3.22;1.80;;;30.80;27.20;;;27.28;37.56;96267.25;4956892;28;20031;-69
2021/06/15 08:15:52;;;;;;;4.28;1.50;;;31.00;27.10;;;27.48;36.90;96273.47;4987408;28;20528;-68
2021/06/15 08:18:18;;;;;;;3.50;1.40;;;31.30;26.60;;;27.68;36.33;96275.91;4979102;28;20038;-67
2021/06/15 08:20:45;;;;;;;2.53;1.45;;;31.60;25.00;;;27.89;35.24;96271.00;4989776;28;20097;-69
2021/06/15 08:23:11;;;;;;;3.40;1.63;;;31.80;24.50;;;28.10;34.18;96266.06;4958096;28;20041;-68
2021/06/15 08:25:37;;;;;;;5.43;2.33;;;31.90;24.10;;;28.31;34.07;96268.16;4971276;28;20128;-70
2021/06/15 08:28:06;;;;;;;7.65;2.42;;;32.20;25.30;;;28.52;32.44;96265.88;4992242;28;20068;-68
2021/06/15 08:30:32;;;;;;;3.97;1.43;;;32.30;24.90;;;28.78;33.85;96270.81;4973387;28;20048;-67
2021/06/15 08:32:58;;;;;;;4.80;1.27;;;32.50;25.00;;;29.01;33.63;96271.72;4981395;28;20035;-65
2021/06/15 08:35:24;;;;;;;4.55;1.40;;;32.60;25.60;;;29.20;33.09;96265.06;4970158;28;20502;-63
2021/06/15 08:37:50;;;;;;;6.30;2.22;;;32.70;24.70;;;29.44;33.01;96277.56;4956702;28;20128;-65
2021/06/15 08:40:16;;;;;;;13.57;10.88;;;33.00;24.60;;;29.65;32.76;96273.31;4986625;28;20026;-66
2021/06/15 08:42:42;;;;;;;12.40;7.05;;;33.10;24.60;;;29.80;32.01;96272.16;4990228;28;20045;-65
2021/06/15 08:45:10;;;;;;;4.80;2.60;;;33.10;24.70;;;29.91;30.74;96275.44;4954641;28;20035;-66
2021/06/15 08:47:38;;;;;;;4.25;1.55;;;33.20;23.90;;;30.00;30.68;96274.38;4958356;28;20035;-70
2021/06/15 08:50:04;;;;;;;6.15;1.80;;;33.20;25.00;;;30.10;31.52;96276.88;4976555;28;20041;-64
2021/06/15 08:52:30;;;;;;;4.28;1.75;;;33.30;24.30;;;30.16;31.31;96277.53;4974756;28;20514;-66
2021/06/15 08:54:56;;;;;;;3.58;1.60;;;33.20;24.60;;;30.19;31.44;96285.06;4978642;28;20065;-67
2021/06/15 08:57:23;;;;;;;6.13;3.75;;;33.40;24.90;;;30.29;31.37;96275.84;5004869;28;20034;-66
2021/06/15 08:59:48;;;;;;;5.18;2.53;;;33.60;25.30;;;30.32;30.83;96265.16;4956015;28;20023;-66
2021/06/15 09:02:14;;;;;;;3.83;2.17;;;33.50;23.60;;;30.38;30.85;96272.09;4973869;28;20035;-67
2021/06/15 09:04:41;;;;;;;3.83;1.88;;;33.60;24.70;;;30.49;30.67;96264.47;4975680;28;20152;-65
2021/06/15 09:07:06;;;;;;;5.75;1.77;;;33.70;23.70;;;30.58;30.46;96264.53;4973828;28;20030;-65
2021/06/15 09:09:45;;;;;;;8.68;3.30;;;33.80;24.20;;;30.69;28.96;96263.94;4939199;28;20043;-65
2021/06/15 09:12:13;;;;;;;8.38;4.15;;;33.90;25.00;;;30.79;30.34;96262.88;5002189;28;20497;-68
2021/06/15 09:14:51;;;;;;;9.18;2.80;;;34.10;24.30;;;30.84;28.43;96270.88;4983507;28;20038;-67
2021/06/15 09:17:26;;;;;;;3.67;2.00;;;34.20;23.50;;;30.90;28.65;96269.63;5000221;28;20047;-65
2021/06/15 09:19:53;;;;;;;4.13;1.85;;;34.20;24.10;;;31.01;29.48;96265.50;4991189;28;20042;-66
2021/06/15 09:22:32;;;;;;;4.88;2.08;;;34.40;23.50;;;31.22;27.94;96270.34;4981414;28;20101;-67
2021/06/15 09:24:58;;;;;;;4.25;1.83;;;34.60;22.70;;;31.38;28.44;96260.63;4972930;28;20037;-68
2021/06/15 09:27:34;;;;;;;5.50;1.88;;;34.70;21.80;;;31.50;26.64;96268.97;4988482;28;20046;-66
2021/06/15 09:30:02;;;;;;;6.38;2.95;;;34.90;22.30;;;31.58;28.03;96267.38;4988952;28;20482;-67
2021/06/15 09:32:37;;;;;;;9.40;3.95;;;34.90;22.60;;;31.68;27.17;96265.13;4986363;28;20145;-67
2021/06/15 09:35:15;;;;;;;6.40;2.08;;;35.00;21.50;;;31.81;26.80;96265.31;4970776;28;20410;-68
2021/06/15 09:37:46;;;;;;;4.75;2.03;;;35.20;22.20;;;31.96;26.05;96259.41;4972782;28;20026;-70
2021/06/15 09:40:34;;;;;;;3.85;2.00;;;35.40;21.00;;;32.16;27.22;96266.09;4973448;28;20037;-66
2021/06/15 09:43:11;;;;;;;10.40;4.78;;;35.50;22.40;;;32.39;26.68;96258.53;4993097;28;20393;-67
2021/06/15 09:45:43;;;;;;;4.35;2.08;;;35.60;22.50;;;32.55;26.08;96256.88;4979565;28;20042;-67
2021/06/15 09:48:32;;;;;;;6.25;1.67;;;35.70;21.40;;;32.70;26.52;96261.78;4999611;28;20121;-65
2021/06/15 09:50:59;;;;;;;7.95;1.75;;;35.80;23.40;;;32.75;26.19;96261.59;4993542;28;20034;-69
2021/06/15 09:53:28;;;;;;;3.25;1.83;;;36.00;20.40;;;32.86;26.16;96262.88;4996872;28;20054;-67
2021/06/15 09:55:56;;;;;;;4.47;2.60;;;36.20;21.30;;;33.01;26.32;96256.03;4985513;28;20053;-72
2021/06/15 09:59:07;;;;;;;3.55;2.50;;;36.40;21.90;;;33.15;24.87;96247.63;4988917;28;20598;-70
2021/06/15 10:01:39;;;;;;;4.45;1.60;;;36.60;20.40;;;33.37;24.50;96260.19;4984451;28;20122;-70
2021/06/15 10:04:23;;;;;;;3.60;2.30;;;37.00;19.60;;;33.67;24.59;96263.66;4972603;28;20035;-70
2021/06/15 10:06:51;;;;;;;3.55;1.65;;;37.50;20.00;;;34.04;25.88;96261.91;4970208;28;20121;-71
2021/06/15 10:09:27;;;;;;;5.25;1.98;;;37.90;18.70;;;34.51;24.15;96258.88;4945117;28;20039;-67
2021/06/15 10:11:57;;;;;;;7.10;3.33;;;38.20;19.70;;;34.94;24.95;96255.66;5003569;28;20444;-70
2021/06/15 10:14:26;;;;;;;8.75;6.80;;;38.50;19.00;;;35.27;24.09;96256.28;4980693;28;20035;-73
2021/06/15 10:16:52;;;;;;;5.68;3.28;;;38.60;19.40;;;35.44;23.69;96252.53;4971625;28;20459;-73
2021/06/15 10:19:18;;;;;;;2.75;1.50;;;38.50;17.10;;;35.67;23.82;96250.09;4971655;28;20058;-73
2021/06/15 10:21:44;;;;;;;4.53;1.50;;;39.00;18.10;;;35.96;22.99;96248.97;4992878;28;20037;-73
2021/06/15 10:24:10;;;;;;;3.35;1.77;;;39.30;17.40;;;36.32;22.94;96250.75;4971376;28;20034;-70
2021/06/15 10:26:35;;;;;;;5.75;2.50;;;39.80;16.60;;;36.60;22.86;96250.69;4972586;28;20034;-72
2021/06/15 10:29:08;;;;;;;3.70;1.70;;;40.10;17.10;;;36.83;22.25;96250.09;4971331;28;20042;-73
2021/06/15 10:31:33;;;;;;;4.40;1.80;;;40.30;15.90;;;37.08;21.75;96254.22;4972726;28;20135;-72